createdAt,value
2023-05-07T00:00:40.025Z,7.53
2023-05-07T00:02:13.179Z,6.63
2023-05-07T00:03:46.398Z,7.13
2023-05-07T00:05:20.335Z,7.07
2023-05-07T00:06:52.802Z,7.70
2023-05-07T00:08:25.923Z,8.52
2023-05-07T00:09:58.221Z,8.82
2023-05-07T00:11:33.328Z,7.50
2023-05-07T00:13:07.474Z,6.10
2023-05-07T00:14:39.609Z,7.13
2023-05-07T00:16:12.725Z,5.97
2023-05-07T00:17:45.018Z,5.72
2023-05-07T00:19:18.233Z,6.28
2023-05-07T00:20:51.423Z,5.60
2023-05-07T00:22:24.657Z,6.30
2023-05-07T00:23:57.906Z,5.55
2023-05-07T00:25:30.132Z,6.05
2023-05-07T00:27:04.848Z,4.97
2023-05-07T00:28:37.963Z,4.43
2023-05-07T00:30:12.267Z,4.03
2023-05-07T00:31:45.893Z,4.00
2023-05-07T00:33:19.085Z,3.65
2023-05-07T00:34:52.175Z,3.30
2023-05-07T00:36:25.476Z,3.10
2023-05-07T00:37:58.773Z,3.13
2023-05-07T00:39:31.878Z,3.25
2023-05-07T00:41:05.094Z,2.95
2023-05-07T00:42:40.082Z,3.20
2023-05-07T00:44:13.374Z,3.17
2023-05-07T00:45:45.731Z,3.00
2023-05-07T00:47:19.401Z,2.90
2023-05-07T00:48:52.182Z,3.80
2023-05-07T00:50:25.810Z,3.42
2023-05-07T00:51:58.907Z,2.85
2023-05-07T00:53:32.687Z,3.75
2023-05-07T00:55:08.731Z,3.38
2023-05-07T00:56:42.388Z,3.33
2023-05-07T00:58:16.998Z,3.60
2023-05-07T00:59:49.670Z,3.28
2023-05-07T01:01:23.156Z,3.33
2023-05-07T01:02:55.490Z,4.18
2023-05-07T01:04:29.489Z,3.67
2023-05-07T01:06:04.296Z,3.55
2023-05-07T01:07:39.018Z,3.53
2023-05-07T01:09:12.453Z,3.30
2023-05-07T01:10:45.274Z,3.42
2023-05-07T01:12:18.682Z,3.20
2023-05-07T01:13:53.795Z,3.53
2023-05-07T01:15:27.528Z,3.25
2023-05-07T01:17:01.154Z,3.17
2023-05-07T01:18:33.862Z,2.92
2023-05-07T01:20:09.433Z,3.40
2023-05-07T01:21:46.252Z,3.50
2023-05-07T01:23:21.509Z,3.85
2023-05-07T01:24:55.160Z,2.88
2023-05-07T01:26:27.608Z,3.55
2023-05-07T01:28:02.523Z,3.97
2023-05-07T01:29:39.455Z,3.63
2023-05-07T01:31:14.622Z,3.90
2023-05-07T01:32:53.335Z,4.07
2023-05-07T01:34:28.140Z,4.07
2023-05-07T01:36:04.680Z,4.35
2023-05-07T01:37:38.319Z,4.93
2023-05-07T01:39:12.710Z,4.57
2023-05-07T01:40:46.353Z,4.75
2023-05-07T01:42:18.646Z,5.22
2023-05-07T01:43:53.353Z,4.65
2023-05-07T01:45:26.869Z,4.38
2023-05-07T01:47:00.781Z,5.07
2023-05-07T01:48:34.941Z,4.07
2023-05-07T01:50:11.259Z,4.35
2023-05-07T01:51:45.791Z,3.75
2023-05-07T01:53:18.272Z,5.13
2023-05-07T01:54:53.018Z,3.95
2023-05-07T01:56:27.350Z,4.10
2023-05-07T01:58:01.348Z,3.90
2023-05-07T01:59:34.830Z,4.20
2023-05-07T02:01:07.018Z,4.43
2023-05-07T02:02:40.693Z,4.63
2023-05-07T02:04:17.164Z,4.85
2023-05-07T02:05:51.353Z,4.18
2023-05-07T02:07:40.464Z,6.28
2023-05-07T02:09:13.884Z,5.00
2023-05-07T02:10:50.977Z,5.13
2023-05-07T02:12:24.422Z,5.00
2023-05-07T02:13:57.700Z,5.32
2023-05-07T02:15:30.046Z,5.65
2023-05-07T02:17:04.902Z,5.53
2023-05-07T02:18:38.964Z,5.18
2023-05-07T02:20:14.511Z,5.43
2023-05-07T02:21:49.078Z,4.78
2023-05-07T02:23:22.359Z,4.20
2023-05-07T02:24:56.151Z,4.35
2023-05-07T02:26:30.703Z,5.57
2023-05-07T02:28:04.050Z,5.38
2023-05-07T02:29:52.382Z,4.82
2023-05-07T02:31:24.766Z,4.85
2023-05-07T02:32:57.942Z,4.70
2023-05-07T02:34:31.236Z,5.30
2023-05-07T02:36:11.231Z,4.72
2023-05-07T02:38:01.876Z,4.45
2023-05-07T02:39:35.525Z,4.45
2023-05-07T02:41:07.760Z,4.10
2023-05-07T02:42:42.511Z,4.47
2023-05-07T02:44:15.829Z,4.97
2023-05-07T02:45:50.096Z,5.53
2023-05-07T02:47:23.614Z,5.00
2023-05-07T02:48:57.124Z,4.75
2023-05-07T02:50:29.362Z,4.65
2023-05-07T02:52:02.940Z,4.10
2023-05-07T02:53:36.116Z,4.30
2023-05-07T02:55:09.378Z,4.47
2023-05-07T02:56:42.653Z,4.47
2023-05-07T02:58:17.259Z,4.30
2023-05-07T02:59:50.389Z,4.72
2023-05-07T03:01:24.652Z,4.05
2023-05-07T03:03:10.696Z,4.05
2023-05-07T03:04:44.328Z,4.80
2023-05-07T03:06:17.644Z,5.15
2023-05-07T03:07:50.983Z,4.68
2023-05-07T03:09:23.327Z,4.20
2023-05-07T03:10:56.643Z,4.55
2023-05-07T03:12:28.883Z,4.53
2023-05-07T03:14:03.731Z,4.68
2023-05-07T03:15:36.941Z,4.47
2023-05-07T03:17:10.178Z,4.82
2023-05-07T03:18:43.408Z,3.78
2023-05-07T03:20:16.197Z,3.65
2023-05-07T03:21:49.876Z,3.45
2023-05-07T03:23:24.789Z,3.85
2023-05-07T03:24:58.412Z,4.35
2023-05-07T03:26:30.829Z,4.13
2023-05-07T03:28:04.073Z,3.08
2023-05-07T03:29:45.914Z,3.53
2023-05-07T03:31:19.090Z,4.10
2023-05-07T03:32:52.610Z,3.25
2023-05-07T03:34:26.128Z,3.67
2023-05-07T03:35:59.246Z,3.83
2023-05-07T03:37:33.224Z,4.03
2023-05-07T03:39:06.504Z,4.55
2023-05-07T03:40:45.100Z,3.92
2023-05-07T03:42:17.587Z,4.13
2023-05-07T03:43:51.548Z,4.22
2023-05-07T03:45:26.265Z,3.80
2023-05-07T03:47:09.203Z,4.05
2023-05-07T03:48:42.364Z,3.90
2023-05-07T03:50:16.369Z,4.25
2023-05-07T03:51:49.667Z,4.45
2023-05-07T03:53:23.202Z,4.32
2023-05-07T03:54:56.482Z,4.22
2023-05-07T03:56:29.716Z,5.22
2023-05-07T03:58:03.725Z,4.50
2023-05-07T03:59:37.160Z,4.88
2023-05-07T04:01:11.714Z,4.53
2023-05-07T04:02:45.061Z,4.50
2023-05-07T04:04:18.863Z,5.03
2023-05-07T04:05:52.344Z,5.07
2023-05-07T04:07:26.080Z,5.43
2023-05-07T04:08:59.239Z,4.53
2023-05-07T04:10:32.572Z,4.45
2023-05-07T04:12:10.122Z,5.82
2023-05-07T04:13:43.347Z,5.15
2023-05-07T04:15:16.825Z,6.07
2023-05-07T04:16:50.577Z,5.30
2023-05-07T04:18:24.120Z,5.97
2023-05-07T04:19:58.023Z,6.35
2023-05-07T04:21:32.234Z,6.68
2023-05-07T04:23:05.924Z,6.72
2023-05-07T04:24:38.810Z,5.30
2023-05-07T04:26:12.436Z,4.70
2023-05-07T04:27:49.991Z,5.03
2023-05-07T04:29:24.781Z,5.65
2023-05-07T04:30:57.044Z,5.72
2023-05-07T04:32:32.860Z,6.65
2023-05-07T04:34:06.577Z,5.07
2023-05-07T04:35:39.024Z,4.78
2023-05-07T04:37:13.119Z,5.82
2023-05-07T04:38:45.678Z,6.63
2023-05-07T04:40:19.537Z,6.30
2023-05-07T04:41:53.035Z,11.48
2023-05-07T04:43:26.175Z,7.97
2023-05-07T04:44:59.367Z,6.70
2023-05-07T04:46:32.824Z,7.43
2023-05-07T04:48:07.918Z,6.57
2023-05-07T04:49:41.584Z,5.82
2023-05-07T04:51:15.000Z,6.20
2023-05-07T04:52:48.278Z,6.97
2023-05-07T04:54:20.816Z,6.75
2023-05-07T04:55:58.195Z,7.97
2023-05-07T04:57:35.472Z,7.25
2023-05-07T04:59:08.792Z,6.57
2023-05-07T05:00:43.527Z,7.38
2023-05-07T05:02:20.076Z,7.25
2023-05-07T05:03:55.677Z,7.43
2023-05-07T05:05:28.981Z,6.93
2023-05-07T05:07:01.546Z,6.78
2023-05-07T05:08:35.432Z,6.50
2023-05-07T05:10:10.691Z,6.88
2023-05-07T05:11:46.956Z,6.88
2023-05-07T05:13:19.348Z,6.93
2023-05-07T05:14:53.620Z,7.28
2023-05-07T05:16:26.877Z,7.88
2023-05-07T05:17:59.061Z,7.43
2023-05-07T05:19:34.269Z,7.22
2023-05-07T05:21:07.673Z,8.18
2023-05-07T05:22:40.937Z,7.85
2023-05-07T05:24:14.670Z,6.55
2023-05-07T05:25:47.965Z,5.65
2023-05-07T05:27:21.762Z,6.68
2023-05-07T05:28:54.920Z,5.78
2023-05-07T05:30:30.410Z,6.07
2023-05-07T05:32:03.117Z,7.30
2023-05-07T05:33:38.030Z,6.32
2023-05-07T05:35:13.604Z,7.00
2023-05-07T05:36:48.387Z,6.22
2023-05-07T05:38:22.989Z,4.82
2023-05-07T05:39:57.428Z,5.68
2023-05-07T05:41:33.132Z,5.97
2023-05-07T05:43:06.335Z,5.57
2023-05-07T05:44:39.976Z,5.97
2023-05-07T05:46:13.448Z,7.38
2023-05-07T05:47:46.725Z,7.82
2023-05-07T05:49:20.305Z,8.93
2023-05-07T05:50:54.939Z,9.57
2023-05-07T05:52:28.426Z,9.60
2023-05-07T05:54:02.734Z,8.70
2023-05-07T05:55:36.341Z,8.98
2023-05-07T05:57:09.746Z,9.90
2023-05-07T05:58:43.384Z,7.15
2023-05-07T06:00:17.186Z,6.22
2023-05-07T06:01:53.305Z,5.38
2023-05-07T06:03:25.871Z,5.35
2023-05-07T06:04:59.667Z,5.97
2023-05-07T06:06:34.590Z,6.32
2023-05-07T06:08:09.038Z,5.93
2023-05-07T06:09:42.564Z,5.65
2023-05-07T06:11:15.946Z,5.32
2023-05-07T06:12:52.092Z,6.28
2023-05-07T06:14:24.312Z,6.13
2023-05-07T06:15:57.697Z,9.68
2023-05-07T06:17:31.686Z,7.95
2023-05-07T06:19:05.073Z,7.75
2023-05-07T06:20:38.316Z,8.07
2023-05-07T06:22:17.444Z,7.95
2023-05-07T06:23:52.321Z,7.57
2023-05-07T06:25:26.125Z,5.78
2023-05-07T06:26:59.828Z,4.88
2023-05-07T06:28:36.885Z,6.07
2023-05-07T06:30:13.700Z,6.90
2023-05-07T06:31:47.106Z,5.13
2023-05-07T06:33:21.832Z,5.88
2023-05-07T06:34:55.350Z,7.20
2023-05-07T06:36:28.662Z,6.55
2023-05-07T06:38:06.185Z,6.03
2023-05-07T06:39:39.789Z,5.57
2023-05-07T06:41:13.157Z,6.20
2023-05-07T06:42:46.696Z,6.22
2023-05-07T06:44:29.877Z,6.40
2023-05-07T06:46:23.547Z,6.70
2023-05-07T06:47:57.107Z,5.95
2023-05-07T06:49:31.326Z,6.28
2023-05-07T06:51:04.990Z,6.38
2023-05-07T06:52:38.628Z,5.35
2023-05-07T06:54:14.606Z,4.70
2023-05-07T06:55:50.001Z,5.13
2023-05-07T06:57:26.708Z,4.95
2023-05-07T06:58:59.902Z,5.53
2023-05-07T07:00:33.448Z,4.70
2023-05-07T07:02:06.921Z,4.68
2023-05-07T07:03:40.369Z,4.15
2023-05-07T07:05:13.557Z,5.75
2023-05-07T07:06:48.066Z,4.50
2023-05-07T07:08:22.236Z,4.53
2023-05-07T07:09:57.396Z,5.30
2023-05-07T07:11:31.493Z,4.03
2023-05-07T07:13:05.755Z,3.63
2023-05-07T07:14:38.946Z,3.45
2023-05-07T07:16:12.363Z,3.50
2023-05-07T07:17:46.081Z,3.50
2023-05-07T07:19:19.585Z,3.13
2023-05-07T07:20:53.380Z,3.88
2023-05-07T07:22:26.994Z,3.58
2023-05-07T07:23:59.603Z,4.38
2023-05-07T07:25:34.780Z,3.75
2023-05-07T07:27:07.956Z,3.97
2023-05-07T07:28:45.918Z,3.80
2023-05-07T07:30:22.077Z,3.60
2023-05-07T07:31:56.370Z,3.33
2023-05-07T07:33:30.144Z,3.38
2023-05-07T07:35:03.874Z,3.42
2023-05-07T07:36:45.457Z,3.10
2023-05-07T07:38:22.347Z,3.47
2023-05-07T07:39:55.557Z,3.13
2023-05-07T07:41:30.443Z,3.15
2023-05-07T07:43:03.738Z,2.80
2023-05-07T07:44:38.123Z,2.45
2023-05-07T07:46:15.076Z,2.42
2023-05-07T07:47:49.680Z,2.50
2023-05-07T07:49:23.083Z,2.72
2023-05-07T07:50:56.674Z,2.58
2023-05-07T07:52:29.828Z,2.30
2023-05-07T07:54:03.936Z,2.25
2023-05-07T07:55:40.667Z,2.10
2023-05-07T07:57:15.882Z,1.70
2023-05-07T07:58:48.984Z,1.85
2023-05-07T08:00:22.920Z,1.65
2023-05-07T08:01:59.916Z,1.20
2023-05-07T08:03:36.957Z,0.90
2023-05-07T08:05:10.698Z,1.25
2023-05-07T08:06:44.285Z,0.98
2023-05-07T08:08:18.098Z,1.10
2023-05-07T08:09:51.526Z,1.00
2023-05-07T08:11:28.828Z,0.98
2023-05-07T08:13:05.135Z,1.13
2023-05-07T08:14:39.341Z,0.90
2023-05-07T08:16:14.615Z,0.90
2023-05-07T08:17:47.930Z,0.60
2023-05-07T08:19:21.255Z,0.60
2023-05-07T08:20:55.128Z,0.60
2023-05-07T08:22:30.920Z,0.68
2023-05-07T08:24:04.379Z,0.98
2023-05-07T08:25:38.549Z,0.80
2023-05-07T08:27:12.475Z,0.70
2023-05-07T08:28:49.609Z,0.93
2023-05-07T08:30:22.905Z,0.93
2023-05-07T08:31:56.177Z,0.85
2023-05-07T08:33:29.865Z,0.82
2023-05-07T08:35:03.798Z,0.57
2023-05-07T08:36:37.033Z,0.75
2023-05-07T08:38:10.539Z,0.68
2023-05-07T08:39:44.364Z,0.70
2023-05-07T08:41:24.054Z,0.80
2023-05-07T08:42:59.253Z,0.80
2023-05-07T08:44:36.358Z,0.52
2023-05-07T08:46:11.668Z,0.85
2023-05-07T08:47:53.002Z,0.63
2023-05-07T08:49:29.990Z,0.60
2023-05-07T08:51:04.068Z,0.50
2023-05-07T08:52:39.285Z,0.52
2023-05-07T08:54:14.227Z,0.73
2023-05-07T08:55:48.261Z,0.80
2023-05-07T08:57:22.796Z,0.70
2023-05-07T08:58:59.893Z,0.70
2023-05-07T09:00:38.644Z,0.73
2023-05-07T09:02:13.425Z,0.60
2023-05-07T09:03:48.505Z,0.50
2023-05-07T09:05:23.042Z,0.70
2023-05-07T09:06:57.359Z,0.60
2023-05-07T09:08:30.627Z,0.70
2023-05-07T09:10:08.603Z,0.70
2023-05-07T09:11:44.225Z,0.45
2023-05-07T09:13:19.462Z,0.85
2023-05-07T09:14:53.167Z,0.60
2023-05-07T09:16:28.292Z,0.75
2023-05-07T09:18:03.466Z,0.70
2023-05-07T09:19:39.697Z,0.70
2023-05-07T09:21:17.925Z,0.50
2023-05-07T09:22:53.027Z,0.57
2023-05-07T09:24:26.443Z,0.73
2023-05-07T09:26:03.170Z,0.65
2023-05-07T09:27:40.100Z,0.50
2023-05-07T09:29:13.285Z,0.88
2023-05-07T09:30:47.320Z,0.80
2023-05-07T09:32:23.458Z,0.90
2023-05-07T09:33:57.297Z,0.70
2023-05-07T09:35:33.298Z,0.68
2023-05-07T09:37:15.190Z,0.63
2023-05-07T09:38:52.220Z,0.77
2023-05-07T09:40:27.450Z,0.70
2023-05-07T09:42:03.558Z,0.77
2023-05-07T09:43:42.563Z,1.02
2023-05-07T09:45:18.120Z,1.65
2023-05-07T09:46:56.607Z,0.82
2023-05-07T09:48:41.927Z,1.00
2023-05-07T09:50:18.682Z,0.80
2023-05-07T09:51:54.100Z,1.00
2023-05-07T09:53:32.291Z,0.73
2023-05-07T09:55:09.751Z,0.73
2023-05-07T09:56:45.710Z,0.80
2023-05-07T09:58:20.917Z,1.00
2023-05-07T09:59:55.866Z,0.80
2023-05-07T10:01:33.002Z,0.60
2023-05-07T10:03:08.156Z,0.80
2023-05-07T10:04:51.339Z,0.60
2023-05-07T10:06:29.618Z,0.60
2023-05-07T10:08:05.022Z,0.70
2023-05-07T10:09:43.949Z,0.60
2023-05-07T10:11:25.275Z,1.08
2023-05-07T10:12:59.321Z,0.63
2023-05-07T10:14:39.775Z,0.95
2023-05-07T10:16:13.371Z,0.70
2023-05-07T10:17:51.805Z,1.67
2023-05-07T10:19:26.156Z,0.90
2023-05-07T10:21:09.108Z,1.20
2023-05-07T10:22:45.983Z,0.95
2023-05-07T10:24:24.146Z,0.90
2023-05-07T10:26:01.108Z,1.30
2023-05-07T10:27:37.563Z,0.82
2023-05-07T10:29:27.530Z,0.90
2023-05-07T10:31:12.589Z,0.98
2023-05-07T10:32:52.960Z,1.17
2023-05-07T10:34:44.342Z,0.90
2023-05-07T10:36:21.057Z,0.90
2023-05-07T10:37:54.986Z,0.80
2023-05-07T10:39:29.863Z,0.95
2023-05-07T10:41:07.035Z,0.70
2023-05-07T10:42:56.931Z,0.75
2023-05-07T10:44:31.693Z,0.70
2023-05-07T10:46:12.606Z,0.95
2023-05-07T10:48:28.697Z,1.00
2023-05-07T10:50:26.092Z,0.85
2023-05-07T10:52:17.170Z,1.17
2023-05-07T10:54:24.818Z,0.90
2023-05-07T10:56:29.969Z,1.00
2023-05-07T10:58:32.077Z,0.73
2023-05-07T11:00:45.809Z,0.68
2023-05-07T11:02:59.658Z,0.82
2023-05-07T11:04:36.382Z,0.73
2023-05-07T11:06:20.292Z,0.88
2023-05-07T11:08:03.782Z,1.00
2023-05-07T11:10:05.962Z,1.00
2023-05-07T11:11:59.483Z,0.90
2023-05-07T11:13:47.034Z,1.00
2023-05-07T11:15:47.621Z,1.05
2023-05-07T11:17:35.747Z,1.10
2023-05-07T11:19:13.240Z,1.15
2023-05-07T11:20:53.037Z,0.95
2023-05-07T11:22:40.984Z,0.98
2023-05-07T11:24:41.858Z,1.00
2023-05-07T11:26:14.910Z,1.00
2023-05-07T11:27:48.825Z,0.80
2023-05-07T11:29:24.085Z,1.08
2023-05-07T11:31:05.323Z,0.93
2023-05-07T11:32:39.358Z,0.90
2023-05-07T11:34:13.488Z,0.90
2023-05-07T11:35:47.616Z,0.82
2023-05-07T11:37:24.155Z,0.90
2023-05-07T11:39:04.871Z,0.80
2023-05-07T11:40:51.233Z,1.10
2023-05-07T11:42:28.179Z,0.73
2023-05-07T11:44:02.217Z,0.85
2023-05-07T11:45:36.381Z,0.90
2023-05-07T11:47:09.777Z,1.20
2023-05-07T11:48:43.102Z,0.95
2023-05-07T11:50:16.231Z,0.88
2023-05-07T11:51:49.603Z,0.80
2023-05-07T11:53:26.850Z,0.93
2023-05-07T11:55:01.547Z,1.10
2023-05-07T11:56:36.816Z,1.02
2023-05-07T11:58:12.050Z,1.10
2023-05-07T11:59:46.304Z,1.30
2023-05-07T12:01:19.511Z,0.90
2023-05-07T12:02:52.883Z,1.30
2023-05-07T12:04:26.739Z,1.00
2023-05-07T12:06:01.925Z,0.80
2023-05-07T12:07:35.977Z,0.88
2023-05-07T12:09:12.570Z,1.38
2023-05-07T12:10:46.741Z,1.13
2023-05-07T12:12:21.542Z,1.15
2023-05-07T12:13:59.769Z,1.13
2023-05-07T12:15:33.302Z,1.05
2023-05-07T12:17:08.468Z,1.00
2023-05-07T12:18:42.417Z,1.02
2023-05-07T12:20:15.732Z,0.82
2023-05-07T12:21:49.152Z,1.10
2023-05-07T12:23:23.210Z,0.93
2023-05-07T12:25:00.460Z,1.70
2023-05-07T12:26:33.755Z,1.05
2023-05-07T12:28:09.815Z,1.23
2023-05-07T12:29:47.605Z,1.08
2023-05-07T12:31:21.154Z,1.05
2023-05-07T12:32:54.324Z,1.00
2023-05-07T12:34:27.486Z,1.20
2023-05-07T12:36:00.859Z,1.30
2023-05-07T12:37:34.119Z,1.52
2023-05-07T12:39:07.518Z,1.45
2023-05-07T12:40:42.619Z,0.95
2023-05-07T12:42:18.534Z,1.00
2023-05-07T12:43:58.891Z,1.10
2023-05-07T12:45:31.196Z,1.00
2023-05-07T12:47:04.913Z,0.82
2023-05-07T12:48:40.087Z,1.40
2023-05-07T12:50:12.648Z,1.05
2023-05-07T12:51:46.090Z,0.98
2023-05-07T12:53:21.853Z,0.77
2023-05-07T14:49:23.995Z,1.10
2023-05-07T14:50:57.429Z,1.00
2023-05-07T14:52:30.577Z,0.90
2023-05-07T14:54:04.431Z,1.45
2023-05-07T14:55:37.842Z,1.10
2023-05-07T14:57:14.432Z,0.73
2023-05-07T14:58:49.497Z,1.23
2023-05-07T15:00:22.895Z,1.02
2023-05-07T15:01:57.120Z,0.90
2023-05-07T15:03:30.788Z,1.08
2023-05-07T15:05:06.013Z,1.15
2023-05-07T15:06:39.663Z,1.13
2023-05-07T15:08:13.105Z,0.88
2023-05-07T15:09:46.997Z,0.90
2023-05-07T15:11:20.137Z,0.85
2023-05-07T15:12:53.290Z,1.00
2023-05-07T15:14:26.767Z,1.00
2023-05-07T15:15:59.955Z,0.85
2023-05-07T15:17:33.185Z,1.20
2023-05-07T15:19:06.319Z,1.10
2023-05-07T15:20:41.139Z,1.48
2023-05-07T15:22:14.502Z,0.75
2023-05-07T15:23:47.862Z,1.17
2023-05-07T15:25:21.760Z,1.20
2023-05-07T15:26:55.103Z,0.93
2023-05-07T15:28:29.089Z,0.85
2023-05-07T15:30:04.922Z,0.95
2023-05-07T15:31:40.014Z,1.27
2023-05-07T15:33:13.680Z,1.00
2023-05-07T15:34:46.835Z,0.70
2023-05-07T15:36:22.121Z,0.90
2023-05-07T15:37:55.531Z,0.80
2023-05-07T15:39:29.236Z,1.65
2023-05-07T15:41:02.463Z,0.70
2023-05-07T15:42:35.881Z,0.77
2023-05-07T15:44:09.675Z,0.77
2023-05-07T15:45:44.745Z,1.00
2023-05-07T15:47:17.957Z,1.00
2023-05-07T15:48:51.192Z,0.93
2023-05-07T15:50:24.428Z,1.00
2023-05-07T15:51:59.271Z,1.27
2023-05-07T15:53:32.499Z,0.95
2023-05-07T15:55:06.657Z,1.20
2023-05-07T15:56:39.970Z,1.25
2023-05-07T15:58:13.260Z,1.13
2023-05-07T15:59:46.399Z,1.00
2023-05-07T16:01:19.732Z,1.17
2023-05-07T16:02:53.248Z,0.90
2023-05-07T16:04:28.182Z,1.52
2023-05-07T16:06:01.975Z,1.02
2023-05-07T16:07:36.458Z,1.10
2023-05-07T16:09:10.474Z,1.27
2023-05-07T16:10:43.800Z,0.70
2023-05-07T16:12:18.258Z,1.02
2023-05-07T16:13:51.375Z,1.00
2023-05-07T16:15:25.050Z,1.10
2023-05-07T16:16:58.603Z,0.93
2023-05-07T16:18:31.897Z,1.20
2023-05-07T16:20:06.565Z,1.35
2023-05-07T16:21:39.799Z,1.80
2023-05-07T16:23:14.369Z,2.10
2023-05-07T16:24:47.584Z,1.33
2023-05-07T16:26:20.691Z,1.38
2023-05-07T16:27:54.861Z,1.70
2023-05-07T16:29:28.290Z,1.02
2023-05-07T16:31:01.451Z,1.00
2023-05-07T16:32:34.882Z,1.10
2023-05-07T16:34:08.195Z,1.05
2023-05-07T16:35:41.601Z,1.10
2023-05-07T16:37:14.808Z,1.15
2023-05-07T16:38:49.407Z,1.10
2023-05-07T16:40:22.646Z,1.00
2023-05-07T16:41:56.104Z,1.17
2023-05-07T16:43:29.390Z,0.98
2023-05-07T16:45:04.786Z,1.40
2023-05-07T16:46:38.155Z,0.93
2023-05-07T16:48:11.286Z,1.17
2023-05-07T16:49:44.420Z,1.40
2023-05-07T16:51:17.644Z,1.42
2023-05-07T16:52:50.979Z,1.15
2023-05-07T16:54:25.520Z,0.98
2023-05-07T16:55:58.718Z,0.70
2023-05-07T16:57:32.665Z,1.10
2023-05-07T16:59:07.502Z,1.00
2023-05-07T17:02:17.171Z,1.38
2023-05-07T17:03:50.796Z,1.63
2023-05-07T17:05:24.593Z,1.95
2023-05-07T17:06:57.959Z,2.10
2023-05-07T17:08:31.126Z,2.10
2023-05-07T17:10:06.594Z,1.50
2023-05-07T17:11:39.893Z,1.33
2023-05-07T17:13:14.165Z,1.33
2023-05-07T17:14:47.368Z,1.73
2023-05-07T17:16:20.724Z,1.30
2023-05-07T17:17:53.949Z,1.73
2023-05-07T17:19:27.239Z,1.30
2023-05-07T17:21:01.002Z,1.60
2023-05-07T17:22:34.353Z,1.25
2023-05-07T17:24:08.416Z,1.38
2023-05-07T17:25:45.566Z,1.25
2023-05-07T17:27:18.772Z,2.00
2023-05-07T17:28:51.853Z,1.60
2023-05-07T17:30:25.129Z,1.45
2023-05-07T17:31:58.342Z,1.83
2023-05-07T17:33:31.554Z,1.30
2023-05-07T17:35:05.076Z,1.83
2023-05-07T17:36:38.257Z,1.50
2023-05-07T17:38:11.394Z,1.70
2023-05-07T17:39:44.464Z,1.70
2023-05-07T17:41:18.996Z,1.40
2023-05-07T17:42:54.346Z,1.58
2023-05-07T17:44:28.564Z,1.30
2023-05-07T17:46:01.884Z,0.98
2023-05-07T17:47:35.771Z,1.15
2023-05-07T17:49:08.937Z,1.33
2023-05-07T17:50:42.656Z,1.80
2023-05-07T17:52:15.852Z,2.47
2023-05-07T17:53:50.262Z,3.10
2023-05-07T17:55:23.582Z,3.13
2023-05-07T17:56:58.185Z,2.92
2023-05-07T17:58:31.689Z,2.60
2023-05-07T18:00:07.745Z,2.33
2023-05-07T18:01:42.390Z,2.50
2023-05-07T18:03:15.833Z,2.25
2023-05-07T18:04:49.743Z,2.50
2023-05-07T18:06:23.328Z,1.77
2023-05-07T18:07:57.029Z,1.40
2023-05-07T18:09:30.463Z,1.70
2023-05-07T18:11:05.876Z,3.17
2023-05-07T18:12:41.467Z,7.45
2023-05-07T18:14:14.893Z,6.47
2023-05-07T18:15:48.635Z,7.05
2023-05-07T18:17:24.250Z,6.65
2023-05-07T18:18:57.689Z,5.88
2023-05-07T18:20:31.091Z,3.00
2023-05-07T18:22:04.312Z,2.65
2023-05-07T18:23:37.978Z,2.17
2023-05-07T18:25:11.658Z,1.98
2023-05-07T18:26:45.379Z,1.95
2023-05-07T18:28:19.972Z,4.13
2023-05-07T18:29:52.178Z,2.75
2023-05-07T18:31:25.386Z,4.45
2023-05-07T18:32:59.101Z,3.67
2023-05-07T18:34:32.414Z,2.55
2023-05-07T18:36:06.059Z,2.55
2023-05-07T18:37:39.145Z,2.30
2023-05-07T18:39:16.693Z,2.42
2023-05-07T18:40:49.958Z,2.72
2023-05-07T18:42:23.158Z,3.53
2023-05-07T18:43:57.647Z,2.55
2023-05-07T18:45:30.862Z,2.35
2023-05-07T18:47:04.212Z,2.38
2023-05-07T18:48:37.429Z,2.13
2023-05-07T18:50:11.647Z,2.58
2023-05-07T18:51:45.886Z,2.28
2023-05-07T18:53:24.161Z,2.75
2023-05-07T18:54:57.537Z,2.00
2023-05-07T18:56:30.711Z,1.55
2023-05-07T18:58:04.120Z,1.90
2023-05-07T18:59:38.711Z,1.83
2023-05-07T19:01:12.017Z,2.45
2023-05-07T19:02:45.413Z,2.30
2023-05-07T19:04:19.114Z,2.15
2023-05-07T19:05:52.267Z,2.35
2023-05-07T19:07:26.350Z,1.67
2023-05-07T19:08:59.512Z,2.42
2023-05-07T19:10:32.825Z,2.70
2023-05-07T19:12:06.783Z,3.22
2023-05-07T19:13:40.114Z,2.55
2023-05-07T19:15:14.825Z,2.20
2023-05-07T19:16:47.961Z,1.73
2023-05-07T19:18:21.112Z,2.10
2023-05-07T19:19:54.249Z,1.58
2023-05-07T19:21:28.767Z,2.05
2023-05-07T19:23:02.225Z,1.90
2023-05-07T19:24:37.185Z,2.10
2023-05-07T19:26:11.922Z,1.88
2023-05-07T19:27:45.198Z,1.85
2023-05-07T19:29:18.744Z,1.80
2023-05-07T19:30:53.294Z,1.45
2023-05-07T19:32:27.383Z,1.60
2023-05-07T19:34:00.960Z,2.17
2023-05-07T19:35:35.533Z,2.60
2023-05-07T19:37:08.717Z,2.45
2023-05-07T19:38:42.219Z,2.50
2023-05-07T19:40:15.568Z,2.15
2023-05-07T19:41:48.989Z,2.33
2023-05-07T19:43:22.752Z,2.17
2023-05-07T19:44:56.065Z,1.70
2023-05-07T19:46:31.073Z,1.63
2023-05-07T19:48:04.431Z,1.38
2023-05-07T19:49:37.729Z,1.83
2023-05-07T19:51:11.456Z,1.58
2023-05-07T19:52:44.672Z,1.63
2023-05-07T19:54:18.016Z,1.50
2023-05-07T19:55:51.208Z,2.10
2023-05-07T19:57:24.670Z,1.30
2023-05-07T19:58:57.933Z,1.90
2023-05-07T20:00:32.903Z,1.42
2023-05-07T20:02:08.061Z,1.67
2023-05-07T20:03:41.723Z,2.03
2023-05-07T20:05:16.046Z,2.30
2023-05-07T20:06:49.431Z,2.00
2023-05-07T20:08:22.636Z,2.30
2023-05-07T20:09:55.980Z,2.10
2023-05-07T20:11:29.278Z,2.10
2023-05-07T20:13:02.854Z,2.20
2023-05-07T20:14:36.270Z,1.85
2023-05-07T20:16:09.628Z,1.60
2023-05-07T20:17:44.466Z,1.88
2023-05-07T20:19:19.219Z,1.73
2023-05-07T20:20:52.437Z,2.10
2023-05-07T20:22:25.859Z,1.63
2023-05-07T20:23:59.117Z,2.45
2023-05-07T20:25:32.347Z,1.85
2023-05-07T20:27:06.304Z,2.13
2023-05-07T20:28:39.591Z,2.00
2023-05-07T20:30:14.549Z,2.63
2023-05-07T20:31:48.078Z,2.35
2023-05-07T20:33:22.606Z,2.25
2023-05-07T20:34:56.158Z,2.03
2023-05-07T20:36:29.406Z,1.92
2023-05-07T20:38:02.565Z,2.00
2023-05-07T20:39:35.800Z,2.58
2023-05-07T20:41:09.915Z,2.60
2023-05-07T20:42:44.054Z,2.50
2023-05-07T20:44:19.174Z,3.20
2023-05-07T20:46:01.538Z,2.40
2023-05-07T20:47:35.125Z,2.58
2023-05-07T20:49:09.687Z,2.17
2023-05-07T20:50:43.043Z,2.45
2023-05-07T20:52:16.159Z,2.35
2023-05-07T20:53:49.410Z,2.22
2023-05-07T20:55:22.611Z,2.38
2023-05-07T20:56:55.856Z,2.42
2023-05-07T20:58:29.661Z,1.90
2023-05-07T21:00:03.820Z,2.25
2023-05-07T21:01:37.207Z,2.17
2023-05-07T21:03:11.253Z,2.53
2023-05-07T21:04:45.984Z,2.97
2023-05-07T21:06:18.289Z,2.15
2023-05-07T21:07:51.457Z,2.10
2023-05-07T21:09:24.620Z,2.40
2023-05-07T21:10:57.865Z,2.38
2023-05-07T21:12:31.126Z,2.38
2023-05-07T21:14:04.498Z,2.20
2023-05-07T21:15:37.670Z,2.30
2023-05-07T21:17:10.824Z,2.03
2023-05-07T21:18:44.488Z,2.70
2023-05-07T21:20:19.329Z,3.20
2023-05-07T21:21:53.983Z,3.22
2023-05-07T21:23:27.122Z,3.08
2023-05-07T21:25:00.026Z,2.85
2023-05-07T21:26:33.220Z,3.50
2023-05-07T21:28:07.690Z,3.08
2023-05-07T21:29:40.812Z,2.65
2023-05-07T21:31:13.125Z,1.67
2023-05-07T21:32:46.423Z,2.30
2023-05-07T21:34:19.910Z,2.00
2023-05-07T21:35:54.462Z,1.83
2023-05-07T21:37:27.850Z,2.58
2023-05-07T21:39:01.148Z,2.00
2023-05-07T21:40:34.450Z,2.28
2023-05-07T21:42:07.524Z,1.88
2023-05-07T21:43:39.850Z,2.20
2023-05-07T21:45:14.128Z,1.98
2023-05-07T21:46:47.413Z,2.25
2023-05-07T21:48:22.161Z,1.50
2023-05-07T21:49:55.623Z,1.85
2023-05-07T21:51:30.164Z,1.80
2023-05-07T21:53:02.420Z,1.48
2023-05-07T21:54:35.600Z,1.75
2023-05-07T21:56:09.135Z,2.10
2023-05-07T21:57:48.038Z,2.05
2023-05-07T21:59:27.260Z,1.95
2023-05-07T22:01:01.369Z,2.20
2023-05-07T22:02:34.149Z,2.03
2023-05-07T22:04:07.643Z,2.30
2023-05-07T22:05:41.302Z,1.73
2023-05-07T22:07:16.031Z,2.50
2023-05-07T22:08:50.054Z,2.67
2023-05-07T22:10:23.327Z,3.03
2023-05-07T22:11:55.524Z,3.30
2023-05-07T22:13:28.736Z,2.00
2023-05-07T22:15:01.163Z,2.05
2023-05-07T22:16:34.393Z,1.60
2023-05-07T22:18:07.702Z,1.83
2023-05-07T22:19:40.914Z,2.30
2023-05-07T22:21:14.157Z,2.70
2023-05-07T22:22:52.234Z,2.53
2023-05-07T22:24:26.010Z,3.13
2023-05-07T22:25:59.502Z,3.97
2023-05-07T22:27:32.631Z,3.72
2023-05-07T22:29:05.783Z,3.00
2023-05-07T22:30:39.114Z,3.80
2023-05-07T22:32:12.881Z,5.40
2023-05-07T22:33:46.505Z,4.68
2023-05-07T22:35:19.869Z,4.85
2023-05-07T22:36:53.287Z,4.03
2023-05-07T22:38:27.797Z,3.58
2023-05-07T22:40:00.217Z,3.03
2023-05-07T22:41:33.379Z,2.80
2023-05-07T22:43:06.807Z,1.92
2023-05-07T22:44:39.962Z,2.33
2023-05-07T22:46:13.299Z,1.88
2023-05-07T22:47:46.538Z,1.90
2023-05-07T22:49:19.772Z,1.58
2023-05-07T22:50:52.114Z,1.92
2023-05-07T22:52:25.365Z,1.42
2023-05-07T22:54:00.210Z,1.42
2023-05-07T22:55:32.677Z,2.28
2023-05-07T22:57:05.834Z,1.90
2023-05-07T22:58:39.047Z,2.65
2023-05-07T23:00:13.944Z,2.08